Time;durP1;ratioP1;P1;durP2;ratioP2;P2;SDS_P1;SDS_P2;PMS_P1;PMS_P2;Temp;Humidity;BMP_temperature;BMP_pressure;BME280_temperature;BME280_humidity;BME280_pressure;Samples;Min_cycle;Max_cycle;Signal;HPM_P1;HPM_P2
2022/10/09 00:00:32;;;;;;;7.80;4.28;;;9.20;99.90;;;;;;5044760;28;20028;-62
2022/10/09 00:02:58;;;;;;;10.32;4.45;;;9.20;99.90;;;;;;5028646;28;20044;-62
2022/10/09 00:05:25;;;;;;;9.73;4.35;;;9.20;99.90;;;;;;5050766;28;20082;-62
2022/10/09 00:07:52;;;;;;;9.45;4.55;;;9.20;99.90;;;;;;5036197;28;20183;-65
2022/10/09 00:10:18;;;;;;;13.73;4.55;;;9.20;99.90;;;;;;5042835;28;20041;-63
2022/10/09 00:12:44;;;;;;;11.25;4.40;;;9.20;99.90;;;;;;5032376;28;20036;-62
2022/10/09 00:15:10;;;;;;;10.60;4.20;;;9.10;99.90;;;;;;5050474;28;20413;-64
2022/10/09 00:17:35;;;;;;;10.23;4.80;;;9.10;99.90;;;;;;5021747;28;20485;-64
2022/10/09 00:20:01;;;;;;;13.93;4.75;;;9.10;99.90;;;;;;5045662;28;20037;-63
2022/10/09 00:22:27;;;;;;;8.25;3.92;;;9.10;99.90;;;;;;5050883;28;20025;-62
2022/10/09 00:24:53;;;;;;;7.68;3.83;;;9.00;99.90;;;;;;5045643;28;20087;-63
2022/10/09 00:27:21;;;;;;;10.65;3.72;;;8.90;99.90;;;;;;5040818;28;20029;-63
2022/10/09 00:29:47;;;;;;;7.78;4.25;;;9.00;99.90;;;;;;5042027;28;20076;-62
2022/10/09 00:32:12;;;;;;;12.68;4.32;;;9.00;99.90;;;;;;5035960;28;20068;-63
2022/10/09 00:34:38;;;;;;;9.30;4.07;;;9.00;99.90;;;;;;5044395;28;20049;-63
2022/10/09 00:37:04;;;;;;;10.07;3.42;;;8.90;99.90;;;;;;5050011;28;20041;-64
2022/10/09 00:39:29;;;;;;;9.48;3.67;;;9.00;99.90;;;;;;5019802;28;20042;-62
2022/10/09 00:41:55;;;;;;;7.45;4.03;;;9.10;99.90;;;;;;5020907;28;20409;-61
2022/10/09 00:44:47;;;;;;;9.90;4.40;;;8.90;99.90;;;;;;5040695;28;20033;-63
2022/10/09 00:47:37;;;;;;;10.65;4.13;;;8.90;99.90;;;;;;5045394;28;20072;-63
2022/10/09 00:50:05;;;;;;;10.05;4.00;;;8.80;99.90;;;;;;5039842;28;20076;-62
2022/10/09 00:52:32;;;;;;;8.60;3.88;;;8.80;99.90;;;;;;5038574;28;20083;-63
2022/10/09 00:55:00;;;;;;;8.10;3.72;;;8.80;99.90;;;;;;5043870;28;20435;-62
2022/10/09 00:57:26;;;;;;;8.00;3.83;;;8.70;99.90;;;;;;5045009;28;20455;-62
2022/10/09 00:59:52;;;;;;;10.10;4.38;;;8.80;99.90;;;;;;5047242;28;20036;-63
2022/10/09 01:02:17;;;;;;;8.18;3.72;;;8.70;99.90;;;;;;5047818;28;20157;-62
2022/10/09 01:04:43;;;;;;;10.15;3.60;;;8.70;99.90;;;;;;5054055;28;20374;-62
2022/10/09 01:07:21;;;;;;;11.60;3.63;;;8.70;99.90;;;;;;5053957;28;20428;-63
2022/10/09 01:10:00;;;;;;;8.93;3.85;;;8.70;99.90;;;;;;5031864;28;20041;-64
2022/10/09 01:12:32;;;;;;;9.63;3.85;;;8.70;99.90;;;;;;5040748;28;20048;-62
2022/10/09 01:14:58;;;;;;;;;;;8.70;99.90;;;;;;5053162;28;20048;-62
2022/10/09 01:17:27;;;;;;;8.32;4.30;;;8.60;99.90;;;;;;5069317;23;19920;31
2022/10/09 01:20:05;;;;;;;9.02;3.80;;;8.60;99.90;;;;;;4962014;28;20506;-61
2022/10/09 01:23:05;;;;;;;8.63;3.80;;;8.60;99.90;;;;;;4992154;28;20081;-59
2022/10/09 01:26:07;;;;;;;9.45;3.92;;;8.60;99.90;;;;;;4976699;28;20054;-59
2022/10/09 01:28:35;;;;;;;7.28;3.80;;;8.60;99.90;;;;;;4975921;28;20042;-59
2022/10/09 01:31:04;;;;;;;8.82;4.40;;;8.50;99.90;;;;;;4994742;28;20049;-60
2022/10/09 01:33:31;;;;;;;8.93;4.00;;;8.50;99.90;;;;;;4994457;28;20039;-63
2022/10/09 01:35:58;;;;;;;8.82;3.58;;;8.50;99.90;;;;;;4986726;28;20039;-60
2022/10/09 01:38:24;;;;;;;9.00;3.97;;;8.50;99.90;;;;;;4991688;28;20177;-62
2022/10/09 01:40:52;;;;;;;7.38;3.85;;;8.50;99.90;;;;;;4994280;28;20056;-62
2022/10/09 01:43:18;;;;;;;8.68;3.88;;;8.50;99.90;;;;;;4976781;28;20410;-62
2022/10/09 01:45:48;;;;;;;6.28;3.55;;;8.50;99.90;;;;;;4984889;28;20042;-61
2022/10/09 01:48:21;;;;;;;8.82;3.75;;;8.40;99.90;;;;;;4970165;28;20050;-62
2022/10/09 01:50:55;;;;;;;9.80;3.50;;;8.40;99.90;;;;;;4988467;28;20043;-62
2022/10/09 01:53:22;;;;;;;8.35;4.05;;;8.40;99.90;;;;;;4987427;28;20057;-62
2022/10/09 01:56:04;;;;;;;8.20;3.78;;;8.30;99.90;;;;;;4993721;28;20498;-62
2022/10/09 01:58:32;;;;;;;8.23;3.70;;;8.30;99.90;;;;;;4994223;28;20038;-62
2022/10/09 02:01:07;;;;;;;7.10;3.40;;;8.30;99.90;;;;;;4993495;28;20045;-61
2022/10/09 02:03:35;;;;;;;7.28;3.28;;;8.20;99.90;;;;;;4994173;28;20070;-63
2022/10/09 02:06:04;;;;;;;6.93;3.40;;;8.20;99.90;;;;;;4993832;28;20169;-62
2022/10/09 02:08:33;;;;;;;7.28;3.25;;;8.20;99.90;;;;;;4987944;28;20038;-63
2022/10/09 02:11:01;;;;;;;8.18;3.80;;;8.10;99.90;;;;;;4992323;28;20034;-62
2022/10/09 02:13:29;;;;;;;7.40;3.90;;;8.10;99.90;;;;;;4989930;28;20430;-62
2022/10/09 02:16:10;;;;;;;11.63;3.65;;;8.10;99.90;;;;;;4979303;28;20046;-62
2022/10/09 02:18:38;;;;;;;7.53;3.60;;;8.10;99.90;;;;;;4985312;28;20092;-61
2022/10/09 02:21:13;;;;;;;9.55;4.03;;;8.10;99.90;;;;;;4978817;28;20087;-61
2022/10/09 02:23:40;;;;;;;6.32;3.65;;;8.10;99.90;;;;;;4979981;28;20042;-62
2022/10/09 02:26:07;;;;;;;7.25;3.55;;;8.10;99.90;;;;;;4993429;28;20042;-59
2022/10/09 02:28:33;;;;;;;10.63;3.65;;;8.00;99.90;;;;;;4993335;28;20042;-63
2022/10/09 02:31:25;;;;;;;11.55;3.90;;;8.10;99.90;;;;;;4985995;28;20544;-61
2022/10/09 02:33:59;;;;;;;6.03;3.63;;;8.10;99.90;;;;;;4976080;28;20050;-60
2022/10/09 02:36:25;;;;;;;8.15;3.67;;;8.10;99.90;;;;;;4993536;28;20257;-59
2022/10/09 02:38:53;;;;;;;6.95;3.67;;;8.00;99.90;;;;;;4992508;28;20061;-60
2022/10/09 02:41:18;;;;;;;8.98;3.75;;;8.00;99.90;;;;;;4975881;28;20084;-61
2022/10/09 02:43:44;;;;;;;7.60;3.22;;;8.00;99.90;;;;;;4987986;28;20038;-61
2022/10/09 02:46:09;;;;;;;8.38;3.72;;;7.90;99.90;;;;;;4984445;28;20061;-61
2022/10/09 02:48:35;;;;;;;8.43;3.58;;;7.90;99.90;;;;;;4990605;28;20105;-61
2022/10/09 02:51:01;;;;;;;11.23;3.88;;;7.90;99.90;;;;;;4991899;28;20041;-62
2022/10/09 02:53:27;;;;;;;6.82;3.30;;;7.90;99.90;;;;;;4987730;28;20482;-63
2022/10/09 02:55:52;;;;;;;6.15;3.70;;;7.90;99.90;;;;;;4980935;28;20049;-62
2022/10/09 02:58:18;;;;;;;6.72;3.35;;;7.80;99.90;;;;;;4993305;28;20395;-62
2022/10/09 03:00:48;;;;;;;9.15;3.33;;;7.80;99.90;;;;;;4986979;28;20066;-62
2022/10/09 03:03:14;;;;;;;5.30;3.50;;;7.80;99.90;;;;;;4977011;28;20180;-61
2022/10/09 03:05:40;;;;;;;9.30;3.60;;;7.80;99.90;;;;;;4982662;28;20546;-60
2022/10/09 03:08:05;;;;;;;6.53;3.67;;;7.80;99.90;;;;;;4992895;28;20349;-61
2022/10/09 03:10:31;;;;;;;11.23;3.22;;;7.80;99.90;;;;;;4988303;28;20038;-60
2022/10/09 03:12:57;;;;;;;7.55;3.42;;;7.80;99.90;;;;;;4992979;28;20077;-61
2022/10/09 03:15:23;;;;;;;10.55;3.78;;;7.80;99.90;;;;;;4977619;28;20137;-64
2022/10/09 03:17:49;;;;;;;7.75;4.07;;;7.80;99.90;;;;;;4979392;28;20124;-63
2022/10/09 03:20:14;;;;;;;7.85;4.00;;;7.80;99.90;;;;;;4984210;28;20042;-62
2022/10/09 03:22:40;;;;;;;6.30;3.40;;;7.80;99.90;;;;;;4988570;28;20034;-61
2022/10/09 03:25:06;;;;;;;6.88;3.67;;;7.80;99.90;;;;;;4991477;28;20164;-61
2022/10/09 03:27:32;;;;;;;6.78;3.75;;;7.80;99.90;;;;;;4985089;28;20030;-61
2022/10/09 03:29:58;;;;;;;7.35;3.70;;;7.80;99.90;;;;;;4987752;28;20045;-64
2022/10/09 03:32:24;;;;;;;7.55;4.30;;;7.70;99.90;;;;;;4977334;28;20173;-64
2022/10/09 03:34:49;;;;;;;7.22;3.90;;;7.70;99.90;;;;;;4992225;28;20117;-61
2022/10/09 03:37:15;;;;;;;9.35;4.00;;;7.70;99.90;;;;;;4975066;28;20109;-64
2022/10/09 03:39:41;;;;;;;10.23;3.95;;;7.70;99.90;;;;;;4991492;28;20034;-61
2022/10/09 03:42:06;;;;;;;7.15;3.35;;;7.70;99.90;;;;;;4992451;28;20117;-61
2022/10/09 03:44:32;;;;;;;6.47;3.80;;;7.70;99.90;;;;;;4992287;28;20410;-61
2022/10/09 03:46:57;;;;;;;6.93;3.35;;;7.60;99.90;;;;;;4964289;28;20065;-62
2022/10/09 03:49:23;;;;;;;5.03;2.75;;;7.60;99.90;;;;;;4974287;28;20049;-63
2022/10/09 03:51:49;;;;;;;6.30;2.42;;;7.60;99.90;;;;;;4983309;28;20521;-63
2022/10/09 03:54:14;;;;;;;4.60;2.40;;;7.50;99.90;;;;;;4982861;28;20490;-61
2022/10/09 03:56:40;;;;;;;3.67;2.30;;;7.60;99.90;;;;;;4991503;28;20038;-61
2022/10/09 03:59:08;;;;;;;3.75;2.35;;;7.50;99.90;;;;;;4987419;28;20081;-63
2022/10/09 04:01:34;;;;;;;4.25;2.28;;;7.40;99.90;;;;;;4980357;28;20069;-64
2022/10/09 04:04:00;;;;;;;6.07;2.50;;;7.40;99.90;;;;;;4978965;28;20080;-63
2022/10/09 04:06:25;;;;;;;5.78;2.83;;;7.40;99.90;;;;;;4991995;28;20114;-64
2022/10/09 04:08:51;;;;;;;5.53;3.25;;;7.40;99.90;;;;;;4991195;28;20089;-63
2022/10/09 04:11:16;;;;;;;5.82;3.15;;;7.30;99.90;;;;;;4991967;28;20041;-64
2022/10/09 04:13:42;;;;;;;7.20;3.35;;;7.30;99.90;;;;;;4983082;28;20124;-62
2022/10/09 04:16:11;;;;;;;6.53;3.38;;;7.30;99.90;;;;;;4985962;28;20482;-60
2022/10/09 04:18:38;;;;;;;8.52;3.70;;;7.30;99.90;;;;;;4991550;28;20371;-63
2022/10/09 04:21:04;;;;;;;7.43;3.30;;;7.30;99.90;;;;;;4987733;28;20101;-62
2022/10/09 04:23:30;;;;;;;8.27;3.78;;;7.30;99.90;;;;;;4991429;28;20110;-63
2022/10/09 04:25:58;;;;;;;7.07;3.50;;;7.30;99.90;;;;;;4973467;28;20054;-63
2022/10/09 04:28:27;;;;;;;10.15;3.83;;;7.30;99.90;;;;;;4991228;28;20128;-61
2022/10/09 04:30:53;;;;;;;5.90;3.60;;;7.20;99.90;;;;;;4977656;28;20154;-63
2022/10/09 04:33:18;;;;;;;8.98;4.00;;;7.30;99.90;;;;;;4990840;28;20143;-62
2022/10/09 04:35:48;;;;;;;8.32;4.03;;;7.20;99.90;;;;;;4979077;28;20045;-64
2022/10/09 04:38:13;;;;;;;9.20;4.35;;;7.20;99.90;;;;;;4987612;28;20057;-64
2022/10/09 04:40:39;;;;;;;7.80;4.07;;;7.30;99.90;;;;;;4980452;28;20038;-63
2022/10/09 04:43:05;;;;;;;8.90;3.92;;;7.30;99.90;;;;;;4991307;28;20034;-61
2022/10/09 04:45:31;;;;;;;10.23;3.88;;;7.20;99.90;;;;;;4976275;28;20549;-62
2022/10/09 04:47:57;;;;;;;8.00;4.28;;;7.20;99.90;;;;;;4991054;28;20438;-64
2022/10/09 04:50:23;;;;;;;6.60;3.75;;;7.20;99.90;;;;;;4990313;28;20054;-61
2022/10/09 04:52:48;;;;;;;8.48;4.50;;;7.20;99.90;;;;;;4975808;28;20034;-63
2022/10/09 04:55:14;;;;;;;6.80;3.95;;;7.20;99.90;;;;;;4981407;28;20045;-61
2022/10/09 04:57:39;;;;;;;8.68;3.90;;;7.20;99.90;;;;;;4989406;28;20031;-61
2022/10/09 05:00:06;;;;;;;7.45;3.92;;;7.10;99.90;;;;;;4986076;28;20034;-63
2022/10/09 05:02:32;;;;;;;9.43;3.97;;;7.10;99.90;;;;;;4991225;28;20387;-61
2022/10/09 05:04:57;;;;;;;9.48;4.60;;;7.10;99.90;;;;;;4987538;28;20049;-62
2022/10/09 05:07:23;;;;;;;9.60;4.40;;;7.10;99.90;;;;;;4990091;28;20050;-62
2022/10/09 05:09:49;;;;;;;7.68;4.07;;;7.10;99.90;;;;;;4990911;28;20379;-61
2022/10/09 05:12:14;;;;;;;10.60;4.10;;;7.10;99.90;;;;;;4981348;28;20077;-61
2022/10/09 05:14:40;;;;;;;8.43;4.32;;;7.10;99.90;;;;;;4983545;28;20034;-61
2022/10/09 05:17:06;;;;;;;8.02;3.90;;;7.10;99.90;;;;;;4977224;28;20122;-62
2022/10/09 05:19:32;;;;;;;6.25;3.83;;;7.10;99.90;;;;;;4979870;28;20081;-60
2022/10/09 05:21:59;;;;;;;6.40;3.92;;;7.10;99.90;;;;;;4969902;28;20046;-64
2022/10/09 05:24:25;;;;;;;9.10;4.40;;;7.10;99.90;;;;;;4981606;28;20040;-61
2022/10/09 05:26:51;;;;;;;7.55;4.53;;;7.10;99.90;;;;;;4981271;28;20046;-61
2022/10/09 05:29:17;;;;;;;10.52;4.93;;;7.10;99.90;;;;;;4990366;28;20038;-62
2022/10/09 05:31:43;;;;;;;7.90;4.60;;;7.10;99.90;;;;;;4973786;28;20038;-62
2022/10/09 05:34:09;;;;;;;8.40;4.60;;;7.10;99.90;;;;;;4983942;28;20387;-64
2022/10/09 05:36:34;;;;;;;8.77;4.80;;;7.10;99.90;;;;;;4975933;28;20402;-63
2022/10/09 05:39:00;;;;;;;7.88;4.60;;;7.10;99.90;;;;;;4990745;28;20034;-64
2022/10/09 05:41:28;;;;;;;7.50;4.60;;;7.10;99.90;;;;;;4990578;28;20061;-62
2022/10/09 05:43:54;;;;;;;7.55;4.28;;;7.10;99.90;;;;;;4968343;28;20042;-62
2022/10/09 05:46:24;;;;;;;7.40;4.00;;;7.10;99.90;;;;;;4994297;28;20519;-62
2022/10/09 05:48:55;;;;;;;6.55;4.05;;;7.10;99.90;;;;;;4993881;28;20065;-61
2022/10/09 05:51:23;;;;;;;8.25;4.22;;;7.10;99.90;;;;;;4978523;28;20046;-61
2022/10/09 05:53:49;;;;;;;7.68;3.85;;;7.10;99.90;;;;;;4977465;28;20099;-64
2022/10/09 05:56:20;;;;;;;7.70;4.15;;;7.10;99.90;;;;;;4986569;28;20109;-64
2022/10/09 05:58:54;;;;;;;9.95;4.40;;;7.10;99.90;;;;;;4993600;28;20042;-61
2022/10/09 06:01:21;;;;;;;12.60;4.70;;;7.10;99.90;;;;;;4961105;28;20043;-61
2022/10/09 06:03:52;;;;;;;8.98;4.53;;;7.10;99.90;;;;;;4985835;28;20133;-63
2022/10/09 06:06:19;;;;;;;10.90;4.60;;;7.10;99.90;;;;;;4986199;28;20487;-63
2022/10/09 06:08:45;;;;;;;10.73;4.82;;;7.10;99.90;;;;;;4991332;28;20463;-64
2022/10/09 06:11:27;;;;;;;8.35;4.35;;;7.10;99.90;;;;;;4993327;28;20465;-63
2022/10/09 06:13:53;;;;;;;7.78;4.90;;;7.10;99.90;;;;;;4979303;28;20129;-64
2022/10/09 06:16:19;;;;;;;10.30;4.47;;;7.10;99.90;;;;;;4993873;28;20045;-61
2022/10/09 06:18:46;;;;;;;10.82;5.40;;;7.10;99.90;;;;;;4993060;28;20495;-61
2022/10/09 06:21:13;;;;;;;10.07;4.90;;;7.10;99.90;;;;;;4976270;28;20495;-61
2022/10/09 06:23:39;;;;;;;9.10;5.10;;;7.10;99.90;;;;;;4987914;28;20449;-63
2022/10/09 06:26:07;;;;;;;10.20;4.57;;;7.10;99.90;;;;;;5005828;28;20125;-63
2022/10/09 06:28:33;;;;;;;11.93;5.57;;;7.10;99.90;;;;;;4993310;28;20065;-63
2022/10/09 06:31:13;;;;;;;8.02;4.68;;;7.10;99.90;;;;;;4978715;28;20125;-63
2022/10/09 06:33:40;;;;;;;10.02;5.28;;;7.10;99.90;;;;;;4993716;28;20034;-63
2022/10/09 06:36:23;;;;;;;9.35;5.25;;;7.10;99.90;;;;;;4993107;28;20053;-63
2022/10/09 06:38:49;;;;;;;9.90;4.95;;;7.00;99.90;;;;;;4989880;28;20042;-63
2022/10/09 06:41:23;;;;;;;9.88;5.53;;;7.20;99.90;;;;;;4985309;28;20046;-63
2022/10/09 06:43:53;;;;;;;12.80;6.05;;;7.20;99.90;;;;;;4991150;28;20038;-63
2022/10/09 06:46:22;;;;;;;10.60;5.53;;;7.20;99.90;;;;;;4987607;28;20050;-63
2022/10/09 06:48:48;;;;;;;10.93;5.55;;;7.20;99.90;;;;;;4989442;28;20045;-63
2022/10/09 06:51:16;;;;;;;11.93;6.25;;;7.20;99.90;;;;;;4976162;28;20378;-63
2022/10/09 06:53:44;;;;;;;11.60;5.78;;;7.30;99.90;;;;;;4990204;28;20178;-63
2022/10/09 06:56:11;;;;;;;12.93;5.70;;;7.30;99.90;;;;;;4992734;28;20034;-64
2022/10/09 06:58:38;;;;;;;13.70;6.32;;;7.30;99.90;;;;;;4992643;28;20446;-64
2022/10/09 07:01:10;;;;;;;11.32;6.45;;;7.40;99.90;;;;;;4978104;28;20046;-63
2022/10/09 07:03:37;;;;;;;;;;;7.40;99.90;;;;;;4993271;28;20039;-64
2022/10/09 07:06:13;;;;;;;10.18;6.28;;;7.40;99.90;;;;;;4985384;28;19918;-64
2022/10/09 07:08:40;;;;;;;11.48;5.93;;;7.50;99.90;;;;;;4987600;28;20414;-64
2022/10/09 07:11:20;;;;;;;12.98;6.43;;;7.50;99.90;;;;;;4975294;28;20085;-64
2022/10/09 07:13:47;;;;;;;15.55;6.32;;;7.50;99.90;;;;;;4975444;28;20049;-61
2022/10/09 07:16:12;;;;;;;11.30;6.47;;;7.60;99.90;;;;;;4979215;28;20035;-61
2022/10/09 07:18:38;;;;;;;12.25;6.68;;;7.60;99.90;;;;;;5004268;23;20507;-61
2022/10/09 07:21:06;;;;;;;15.88;6.82;;;7.60;99.90;;;;;;5030802;28;20045;-61
2022/10/09 07:23:33;;;;;;;13.15;6.57;;;7.60;99.90;;;;;;5012263;28;20042;-61
2022/10/09 07:26:01;;;;;;;14.52;6.68;;;7.70;99.90;;;;;;5025054;28;20049;-62
2022/10/09 07:28:28;;;;;;;10.45;6.32;;;7.70;99.90;;;;;;5016629;28;20499;-61
2022/10/09 07:30:54;;;;;;;12.93;7.40;;;7.80;99.90;;;;;;5030753;28;20204;-60
2022/10/09 07:33:19;;;;;;;12.90;6.88;;;7.80;99.90;;;;;;5023921;28;20111;-62
2022/10/09 07:35:56;;;;;;;10.80;6.75;;;7.80;99.90;;;;;;5019397;28;20480;-62
2022/10/09 07:38:23;;;;;;;14.45;6.68;;;7.90;99.90;;;;;;4998846;28;20398;-61
2022/10/09 07:40:49;;;;;;;12.63;7.28;;;7.90;99.90;;;;;;5009958;28;20037;-61
2022/10/09 07:43:15;;;;;;;11.60;7.30;;;8.00;99.90;;;;;;5023195;28;20045;-59
2022/10/09 07:45:40;;;;;;;14.75;7.32;;;8.00;99.90;;;;;;5006063;28;20041;-61
2022/10/09 07:48:06;;;;;;;12.82;7.53;;;8.00;99.90;;;;;;5024463;28;20021;-61
2022/10/09 07:50:32;;;;;;;13.43;7.82;;;8.10;99.90;;;;;;5023372;28;20117;-62
2022/10/09 07:52:57;;;;;;;14.65;8.00;;;8.10;99.90;;;;;;5024760;28;20107;-60
2022/10/09 07:55:23;;;;;;;14.82;8.43;;;8.10;99.90;;;;;;5031249;28;20430;-60
2022/10/09 07:57:49;;;;;;;14.82;7.82;;;8.20;99.90;;;;;;5001672;28;20121;-61
2022/10/09 08:00:15;;;;;;;11.35;8.15;;;8.20;99.90;;;;;;5017200;28;20493;-61
2022/10/09 08:02:41;;;;;;;15.45;7.20;;;8.30;99.90;;;;;;5010133;28;20044;-60
2022/10/09 08:05:08;;;;;;;15.60;8.43;;;8.30;99.90;;;;;;5030432;28;20091;-60
2022/10/09 08:07:33;;;;;;;14.30;7.50;;;8.40;99.90;;;;;;5005411;28;20095;-61
2022/10/09 08:09:59;;;;;;;13.70;8.70;;;8.40;99.90;;;;;;5023793;28;20045;-61
2022/10/09 08:12:24;;;;;;;14.43;8.57;;;8.40;99.90;;;;;;5031318;28;20034;-62
2022/10/09 08:14:50;;;;;;;16.00;8.43;;;8.50;99.90;;;;;;5024713;28;20536;-63
2022/10/09 08:17:16;;;;;;;15.90;7.95;;;8.50;99.90;;;;;;5018838;28;20034;-61
2022/10/09 08:19:41;;;;;;;14.27;7.68;;;8.60;99.90;;;;;;5023370;28;20042;-61
2022/10/09 08:22:07;;;;;;;14.13;7.68;;;8.60;99.90;;;;;;5009774;28;20512;-61
2022/10/09 08:24:32;;;;;;;16.33;7.90;;;8.70;99.90;;;;;;5030813;28;20076;-62
2022/10/09 08:26:58;;;;;;;15.55;8.10;;;8.70;99.90;;;;;;5028237;28;20045;-59
2022/10/09 08:29:24;;;;;;;13.07;7.55;;;8.80;99.90;;;;;;5010748;28;20041;-61
2022/10/09 08:31:50;;;;;;;17.30;8.30;;;8.90;99.90;;;;;;5024760;28;20037;-62
2022/10/09 08:34:16;;;;;;;15.95;8.30;;;8.90;99.90;;;;;;5009121;28;20052;-61
2022/10/09 08:36:43;;;;;;;15.80;7.47;;;8.90;99.90;;;;;;5009602;28;20034;-61
2022/10/09 08:39:09;;;;;;;12.65;7.30;;;9.00;99.90;;;;;;5027063;28;20104;-61
2022/10/09 08:41:40;;;;;;;13.35;7.60;;;9.10;99.90;;;;;;5030558;28;20037;-61
2022/10/09 08:44:33;;;;;;;18.40;9.23;;;9.20;99.90;;;;;;5012856;28;20042;-62
2022/10/09 08:46:59;;;;;;;14.35;7.80;;;9.20;99.90;;;;;;5020993;28;20045;-62
2022/10/09 08:49:42;;;;;;;14.90;7.50;;;9.40;99.90;;;;;;5026350;28;20407;-62
2022/10/09 08:52:45;;;;;;;16.88;8.27;;;9.40;99.90;;;;;;5021185;28;20045;-62
2022/10/09 08:55:25;;;;;;;15.25;7.78;;;9.50;99.90;;;;;;5005782;28;20057;-61
2022/10/09 08:57:56;;;;;;;15.10;7.03;;;9.60;99.90;;;;;;5018828;28;20046;-62
2022/10/09 09:00:25;;;;;;;16.77;7.90;;;9.70;99.90;;;;;;5017503;28;20042;-62
2022/10/09 09:03:23;;;;;;;15.23;7.30;;;9.80;99.90;;;;;;5022380;28;20053;-61
2022/10/09 09:06:29;;;;;;;17.02;7.35;;;9.90;99.90;;;;;;4996086;28;20041;-61
2022/10/09 09:09:17;;;;;;;14.32;7.07;;;10.00;99.90;;;;;;5022730;28;20412;-62
2022/10/09 09:11:50;;;;;;;18.98;7.57;;;10.10;99.90;;;;;;5007007;28;20041;-62
2022/10/09 09:14:35;;;;;;;15.27;6.57;;;10.20;99.90;;;;;;5000181;28;20285;-61
2022/10/09 09:17:03;;;;;;;13.35;7.13;;;10.30;99.90;;;;;;5019829;28;20048;-63
2022/10/09 09:19:34;;;;;;;14.32;6.68;;;10.40;99.90;;;;;;5000048;28;20167;-61
2022/10/09 09:22:00;;;;;;;18.35;7.50;;;10.40;99.90;;;;;;5026210;28;20507;-62
2022/10/09 09:24:46;;;;;;;14.90;6.80;;;10.50;99.90;;;;;;5032786;28;20038;-61
2022/10/09 09:27:19;;;;;;;15.10;6.47;;;10.60;99.90;;;;;;5015812;28;20033;-63
2022/10/09 09:29:57;;;;;;;12.00;6.43;;;10.60;99.90;;;;;;5026557;28;20034;-63
2022/10/09 09:32:26;;;;;;;13.48;5.88;;;10.70;99.90;;;;;;5030261;28;20516;-62
2022/10/09 09:35:14;;;;;;;13.23;6.25;;;10.80;99.90;;;;;;5031938;28;20041;-63
2022/10/09 09:37:40;;;;;;;11.25;5.57;;;10.80;99.90;;;;;;5017742;28;20050;-64
2022/10/09 09:40:14;;;;;;;11.52;5.43;;;10.90;99.90;;;;;;5029402;28;20103;-64
2022/10/09 09:42:41;;;;;;;14.32;5.30;;;11.00;99.90;;;;;;5025384;28;20034;-64
2022/10/09 09:45:15;;;;;;;14.25;5.07;;;11.10;99.90;;;;;;5031447;28;20037;-62
2022/10/09 09:47:47;;;;;;;11.57;4.88;;;11.20;99.90;;;;;;5020040;28;20049;-63
2022/10/09 09:50:13;;;;;;;10.82;4.93;;;11.30;99.90;;;;;;5014866;28;20037;-62
2022/10/09 09:52:42;;;;;;;13.27;4.55;;;11.30;99.90;;;;;;5023774;28;20409;-64
2022/10/09 09:55:24;;;;;;;11.13;4.72;;;11.40;99.90;;;;;;5025599;28;20033;-63
2022/10/09 09:57:49;;;;;;;15.85;5.75;;;11.50;99.90;;;;;;5007494;28;20040;-63
2022/10/09 10:00:15;;;;;;;13.82;4.95;;;11.60;99.90;;;;;;5007780;28;20037;-62
2022/10/09 10:02:41;;;;;;;11.23;4.60;;;11.70;99.90;;;;;;5033178;28;20041;-64
2022/10/09 10:05:24;;;;;;;10.55;4.60;;;11.80;99.90;;;;;;4997927;28;20454;-64
2022/10/09 10:07:51;;;;;;;13.95;4.93;;;11.90;99.90;;;;;;5005771;28;20049;-61
2022/10/09 10:10:25;;;;;;;12.60;5.20;;;12.20;99.90;;;;;;5031784;28;20516;-64
2022/10/09 10:12:50;;;;;;;12.68;4.55;;;12.20;99.90;;;;;;5015135;28;20523;-63
2022/10/09 10:15:24;;;;;;;10.35;4.60;;;12.40;99.90;;;;;;5025150;28;20048;-63
2022/10/09 10:18:15;;;;;;;13.18;4.43;;;12.50;99.90;;;;;;5027990;28;20033;-63
2022/10/09 10:20:50;;;;;;;13.00;4.97;;;12.60;99.90;;;;;;5012310;28;20055;-64
2022/10/09 10:23:31;;;;;;;11.18;4.93;;;12.70;99.90;;;;;;5024385;28;20065;-62
2022/10/09 10:25:59;;;;;;;12.63;4.85;;;12.90;99.90;;;;;;5011599;28;20053;-64
2022/10/09 10:28:36;;;;;;;11.02;4.47;;;13.00;99.90;;;;;;5032872;28;20037;-64
2022/10/09 10:31:06;;;;;;;14.23;4.30;;;13.10;99.90;;;;;;5026026;28;20044;-64
2022/10/09 10:33:35;;;;;;;9.55;4.38;;;13.20;99.90;;;;;;5033217;28;20037;-61
2022/10/09 10:36:01;;;;;;;17.13;5.30;;;13.30;99.90;;;;;;5010283;28;20052;-64
2022/10/09 10:38:43;;;;;;;11.77;4.18;;;13.40;99.90;;;;;;5002963;28;20506;-63
2022/10/09 10:41:33;;;;;;;11.07;4.85;;;13.50;99.90;;;;;;5006171;28;20042;-64
2022/10/09 10:44:06;;;;;;;12.68;5.30;;;13.50;99.90;;;;;;5012678;28;20048;-64
2022/10/09 10:46:48;;;;;;;14.13;5.38;;;13.60;99.90;;;;;;5024348;28;20048;-64
2022/10/09 10:49:23;;;;;;;11.60;4.00;;;13.70;99.90;;;;;;5029349;28;20034;-64
2022/10/09 10:52:33;;;;;;;12.93;4.93;;;13.80;99.90;;;;;;5029879;28;20037;-62
2022/10/09 10:55:32;;;;;;;13.52;5.63;;;13.90;99.90;;;;;;5004296;28;20042;-63
2022/10/09 10:58:14;;;;;;;16.88;5.38;;;14.00;99.90;;;;;;5021489;28;20038;-64
2022/10/09 11:00:42;;;;;;;;;;;14.10;99.90;;;;;;5024177;28;20073;-65
2022/10/09 11:03:28;;;;;;;10.60;4.35;;;14.20;99.90;;;;;;4998311;28;19924;-65
2022/10/09 11:06:03;;;;;;;10.18;4.30;;;14.30;99.90;;;;;;5031792;28;20037;-64
2022/10/09 11:08:38;;;;;;;13.65;5.30;;;14.30;99.90;;;;;;5020384;28;20046;-65
2022/10/09 11:11:13;;;;;;;12.15;4.85;;;14.40;99.90;;;;;;5003431;28;20057;-64
2022/10/09 11:13:57;;;;;;;16.73;5.60;;;14.50;99.90;;;;;;5004903;28;20041;-64
2022/10/09 11:16:40;;;;;;;15.13;4.70;;;14.60;99.90;;;;;;5020508;28;20077;-64
2022/10/09 11:19:21;;;;;;;12.90;4.47;;;14.60;99.90;;;;;;5015264;28;20084;-62
2022/10/09 11:21:59;;;;;;;11.15;4.30;;;14.70;99.90;;;;;;5010743;28;20041;-64
2022/10/09 11:24:49;;;;;;;11.45;4.35;;;14.70;99.90;;;;;;5010827;28;20343;-64
2022/10/09 11:27:25;;;;;;;12.65;5.15;;;14.80;99.90;;;;;;5002004;28;20045;-64
2022/10/09 11:30:17;;;;;;;14.43;5.30;;;14.80;99.90;;;;;;5008028;28;20041;-64
2022/10/09 11:33:20;;;;;;;14.07;4.47;;;14.90;99.90;;;;;;4998164;28;20049;-64
2022/10/09 11:35:50;;;;;;;11.00;4.70;;;15.00;99.90;;;;;;5002820;28;20064;-62
2022/10/09 11:38:30;;;;;;;11.20;4.60;;;15.00;99.90;;;;;;5028035;28;20046;-64
2022/10/09 11:40:57;;;;;;;12.63;4.30;;;15.00;99.90;;;;;;5028760;28;20378;-64
2022/10/09 11:43:25;;;;;;;11.63;4.18;;;15.10;99.90;;;;;;5031345;28;20373;-64
2022/10/09 11:46:02;;;;;;;7.97;3.67;;;15.10;99.90;;;;;;5013667;28;20405;-63
2022/10/09 11:48:45;;;;;;;8.70;3.70;;;15.10;99.90;;;;;;5017470;28;20033;-63
2022/10/09 11:51:18;;;;;;;10.35;3.70;;;15.10;99.90;;;;;;5019618;28;20077;-65
2022/10/09 11:53:45;;;;;;;10.18;3.60;;;15.20;99.90;;;;;;5000575;28;20033;-65
2022/10/09 11:56:28;;;;;;;8.85;3.45;;;15.20;99.90;;;;;;5020464;28;20041;-64
2022/10/09 11:59:03;;;;;;;9.88;3.38;;;15.20;99.90;;;;;;5027810;28;20041;-64
2022/10/09 12:01:35;;;;;;;10.13;3.90;;;15.30;99.90;;;;;;5013594;28;20397;-62
2022/10/09 12:04:04;;;;;;;7.32;3.10;;;15.30;99.90;;;;;;5000531;28;20046;-64
2022/10/09 12:06:31;;;;;;;7.35;3.03;;;15.30;99.90;;;;;;5018304;28;20045;-64
2022/10/09 12:09:04;;;;;;;9.45;3.20;;;15.30;99.90;;;;;;5028301;28;20042;-65
2022/10/09 12:11:32;;;;;;;9.13;3.28;;;15.40;99.90;;;;;;5017781;28;20131;-64
2022/10/09 12:14:03;;;;;;;10.60;3.25;;;15.50;99.90;;;;;;5023338;28;20049;-64
2022/10/09 12:16:38;;;;;;;10.25;3.40;;;15.50;99.90;;;;;;5013141;28;20037;-62
2022/10/09 12:19:17;;;;;;;12.45;3.08;;;15.60;99.90;;;;;;5030567;28;20052;-64
2022/10/09 12:21:56;;;;;;;8.32;3.58;;;15.60;99.90;;;;;;5008744;28;20041;-61
2022/10/09 12:24:39;;;;;;;13.18;3.20;;;15.70;99.90;;;;;;5025011;28;20034;-64
2022/10/09 12:27:06;;;;;;;13.80;3.92;;;15.70;99.90;;;;;;5030707;28;20038;-65
2022/10/09 12:29:43;;;;;;;7.65;3.13;;;15.70;99.90;;;;;;5026420;28;20112;-64
2022/10/09 12:32:17;;;;;;;11.15;3.13;;;15.70;99.90;;;;;;5005249;28;20493;-65
2022/10/09 12:34:47;;;;;;;13.13;3.92;;;15.70;99.90;;;;;;4988650;28;20178;-64
2022/10/09 12:37:15;;;;;;;12.65;3.40;;;15.60;99.90;;;;;;5021989;28;20037;-64
2022/10/09 12:39:42;;;;;;;39.70;4.05;;;15.70;99.90;;;;;;5028252;28;20041;-65
2022/10/09 12:42:17;;;;;;;14.02;3.90;;;15.70;99.90;;;;;;4998169;28;20099;-64
2022/10/09 12:44:43;;;;;;;6.78;3.05;;;15.70;99.90;;;;;;5008269;28;20029;-64
2022/10/09 12:47:25;;;;;;;10.63;3.30;;;15.70;99.90;;;;;;5008223;28;20069;-64
2022/10/09 12:50:21;;;;;;;11.80;3.05;;;15.80;99.90;;;;;;5013332;28;20115;-64
2022/10/09 12:52:57;;;;;;;7.45;2.78;;;15.80;99.90;;;;;;5020501;28;20046;-65
2022/10/09 12:55:40;;;;;;;9.43;3.25;;;15.80;99.90;;;;;;5015765;28;20046;-64
2022/10/09 12:58:12;;;;;;;7.47;3.03;;;15.90;99.90;;;;;;5016593;28;20045;-65
2022/10/09 13:00:39;;;;;;;9.60;3.05;;;15.90;99.90;;;;;;5019627;28;20038;-62
2022/10/09 13:03:04;;;;;;;9.52;3.53;;;15.90;99.90;;;;;;5025729;28;20040;-64
2022/10/09 13:05:38;;;;;;;8.15;2.90;;;15.90;99.90;;;;;;5016605;28;20438;-62
2022/10/09 13:08:05;;;;;;;6.95;2.90;;;15.90;99.90;;;;;;5023153;28;20041;-65